Decoded Metar for KFBG (FORT BRAGG/SIMMO in NC, USA) (IATA:FBG) | Meteo·Mobile Aviation Weather
aviador You're here:

KFBG Decoded Metar

FORT BRAGG/SIMMO in NC, USA
Report Time2018-09-19 19:56:00
UTC Time2018-09-19 20:13:38
Flight Rules vfr VFR
Wind360° at 04 kt
W.Decomp.*RWY 09: 0.5 kt HW 4 kt LCW
Visibility9999 m
Phenomena:N/A
Clouds:N/A
Expected CloudBase > 6,000 ft AGL from Temp-Dew spread
CeilingNone
Temp32°C (ISA +17)
Dew Point17°C (41% RH)
Heat Index32.5°C
QNH1014 hPa
Density Alt2,464 ft
Elevation243 ft
Report Wrong Elevation
Raw Report
KFBG 191956Z AUTO 36004KT 10SM CLR 32/17 A2993 RMK AO2 SLP136
T03180165 $=

Extra information for KFBG:More info

Metar Taf Metar & Taf Last 4 Metars F.Rules Stats Wind Profile Meteogram Temp Stats Airport Information Weather charts Add Link Nearby VenuesMetar ALERT Operation Metar Decoded Social comments

AIRNAV info for KFBG